sensor_id;sensor_type;location;lat;lon;timestamp;temperature;humidity
11855;DHT22;5987;53.140;8.904;2023-06-14T00:01:46;16.60;99.90
11855;DHT22;5987;53.140;8.904;2023-06-14T00:04:50;16.60;99.90
11855;DHT22;5987;53.140;8.904;2023-06-14T00:07:54;16.50;99.90
11855;DHT22;5987;53.140;8.904;2023-06-14T00:11:00;16.50;99.90
11855;DHT22;5987;53.140;8.904;2023-06-14T00:14:03;16.40;99.90
11855;DHT22;5987;53.140;8.904;2023-06-14T00:17:08;16.40;99.90
11855;DHT22;5987;53.140;8.904;2023-06-14T00:20:12;16.40;99.90
11855;DHT22;5987;53.140;8.904;2023-06-14T00:23:16;16.40;99.90
11855;DHT22;5987;53.140;8.904;2023-06-14T00:26:22;16.40;99.90
11855;DHT22;5987;53.140;8.904;2023-06-14T00:29:25;16.30;99.90
11855;DHT22;5987;53.140;8.904;2023-06-14T00:32:29;16.30;99.90
11855;DHT22;5987;53.140;8.904;2023-06-14T00:35:33;16.30;99.90
11855;DHT22;5987;53.140;8.904;2023-06-14T00:38:37;16.20;99.90
11855;DHT22;5987;53.140;8.904;2023-06-14T00:41:43;16.20;99.90
11855;DHT22;5987;53.140;8.904;2023-06-14T00:44:47;16.10;99.90
11855;DHT22;5987;53.140;8.904;2023-06-14T00:47:51;16.10;99.90
11855;DHT22;5987;53.140;8.904;2023-06-14T00:50:58;16.00;99.90
11855;DHT22;5987;53.140;8.904;2023-06-14T00:54:06;16.00;99.90
11855;DHT22;5987;53.140;8.904;2023-06-14T00:57:12;15.90;99.90
11855;DHT22;5987;53.140;8.904;2023-06-14T01:00:16;15.90;99.90
11855;DHT22;5987;53.140;8.904;2023-06-14T01:03:20;16.00;99.90
11855;DHT22;5987;53.140;8.904;2023-06-14T01:06:33;16.00;99.90
11855;DHT22;5987;53.140;8.904;2023-06-14T01:10:01;15.90;99.90
11855;DHT22;5987;53.140;8.904;2023-06-14T01:13:25;15.90;99.90
11855;DHT22;5987;53.140;8.904;2023-06-14T01:16:32;15.80;99.90
11855;DHT22;5987;53.140;8.904;2023-06-14T01:19:38;15.80;99.90
11855;DHT22;5987;53.140;8.904;2023-06-14T01:22:50;15.80;99.90
11855;DHT22;5987;53.140;8.904;2023-06-14T01:25:55;15.80;99.90
11855;DHT22;5987;53.140;8.904;2023-06-14T01:28:59;15.70;99.90
11855;DHT22;5987;53.140;8.904;2023-06-14T01:32:04;15.70;99.90
11855;DHT22;5987;53.140;8.904;2023-06-14T01:35:11;15.70;99.90
11855;DHT22;5987;53.140;8.904;2023-06-14T01:38:17;15.60;99.90
11855;DHT22;5987;53.140;8.904;2023-06-14T01:41:24;15.50;99.90
11855;DHT22;5987;53.140;8.904;2023-06-14T01:44:30;15.50;99.90
11855;DHT22;5987;53.140;8.904;2023-06-14T01:47:35;15.40;99.90
11855;DHT22;5987;53.140;8.904;2023-06-14T01:50:39;15.30;99.90
11855;DHT22;5987;53.140;8.904;2023-06-14T01:53:44;15.30;99.90
11855;DHT22;5987;53.140;8.904;2023-06-14T01:56:49;15.30;99.90
11855;DHT22;5987;53.140;8.904;2023-06-14T01:59:53;15.30;99.90
11855;DHT22;5987;53.140;8.904;2023-06-14T02:02:56;15.20;99.90
11855;DHT22;5987;53.140;8.904;2023-06-14T02:06:00;15.20;99.90
11855;DHT22;5987;53.140;8.904;2023-06-14T02:09:06;15.20;99.90
11855;DHT22;5987;53.140;8.904;2023-06-14T02:12:10;15.20;99.90
11855;DHT22;5987;53.140;8.904;2023-06-14T02:15:14;15.10;99.90
11855;DHT22;5987;53.140;8.904;2023-06-14T02:18:20;15.10;99.90
11855;DHT22;5987;53.140;8.904;2023-06-14T02:21:24;15.10;99.90
11855;DHT22;5987;53.140;8.904;2023-06-14T02:24:29;15.10;99.90
11855;DHT22;5987;53.140;8.904;2023-06-14T02:27:33;15.00;99.90
11855;DHT22;5987;53.140;8.904;2023-06-14T02:30:37;15.00;99.90
11855;DHT22;5987;53.140;8.904;2023-06-14T02:33:43;14.90;99.90
11855;DHT22;5987;53.140;8.904;2023-06-14T02:36:47;14.90;99.90
11855;DHT22;5987;53.140;8.904;2023-06-14T02:39:53;14.90;99.90
11855;DHT22;5987;53.140;8.904;2023-06-14T02:42:57;14.90;99.90
11855;DHT22;5987;53.140;8.904;2023-06-14T02:46:01;14.90;99.90
11855;DHT22;5987;53.140;8.904;2023-06-14T02:49:05;14.80;99.90
11855;DHT22;5987;53.140;8.904;2023-06-14T02:52:09;14.90;99.90
11855;DHT22;5987;53.140;8.904;2023-06-14T02:55:14;14.90;99.90
11855;DHT22;5987;53.140;8.904;2023-06-14T02:58:18;14.90;99.90
11855;DHT22;5987;53.140;8.904;2023-06-14T03:01:22;14.90;99.90
11855;DHT22;5987;53.140;8.904;2023-06-14T03:04:28;14.90;99.90
11855;DHT22;5987;53.140;8.904;2023-06-14T03:07:39;14.80;99.90
11855;DHT22;5987;53.140;8.904;2023-06-14T03:10:45;14.80;99.90
11855;DHT22;5987;53.140;8.904;2023-06-14T03:13:49;14.70;99.90
11855;DHT22;5987;53.140;8.904;2023-06-14T03:16:54;14.60;99.90
11855;DHT22;5987;53.140;8.904;2023-06-14T03:19:59;14.50;99.90
11855;DHT22;5987;53.140;8.904;2023-06-14T03:23:03;14.50;99.90
11855;DHT22;5987;53.140;8.904;2023-06-14T03:26:10;14.60;99.90
11855;DHT22;5987;53.140;8.904;2023-06-14T03:29:15;14.60;99.90
11855;DHT22;5987;53.140;8.904;2023-06-14T03:32:19;14.60;99.90
11855;DHT22;5987;53.140;8.904;2023-06-14T03:35:23;14.60;99.90
11855;DHT22;5987;53.140;8.904;2023-06-14T03:38:27;14.60;99.90
11855;DHT22;5987;53.140;8.904;2023-06-14T03:41:32;14.60;99.90
11855;DHT22;5987;53.140;8.904;2023-06-14T03:44:36;14.60;99.90
11855;DHT22;5987;53.140;8.904;2023-06-14T03:47:40;14.70;99.90
11855;DHT22;5987;53.140;8.904;2023-06-14T03:50:44;15.20;99.90
11855;DHT22;5987;53.140;8.904;2023-06-14T03:53:48;15.90;99.90
11855;DHT22;5987;53.140;8.904;2023-06-14T03:57:14;16.50;99.90
11855;DHT22;5987;53.140;8.904;2023-06-14T04:00:18;17.10;99.90
11855;DHT22;5987;53.140;8.904;2023-06-14T04:03:22;17.20;99.90
11855;DHT22;5987;53.140;8.904;2023-06-14T04:06:27;17.10;99.90
11855;DHT22;5987;53.140;8.904;2023-06-14T04:09:34;16.60;99.90
11855;DHT22;5987;53.140;8.904;2023-06-14T04:12:39;16.20;99.90
11855;DHT22;5987;53.140;8.904;2023-06-14T04:15:45;16.00;99.90
11855;DHT22;5987;53.140;8.904;2023-06-14T04:18:49;16.10;99.90
11855;DHT22;5987;53.140;8.904;2023-06-14T04:21:54;16.50;99.90
11855;DHT22;5987;53.140;8.904;2023-06-14T04:24:58;17.00;99.90
11855;DHT22;5987;53.140;8.904;2023-06-14T04:28:08;17.20;99.90
11855;DHT22;5987;53.140;8.904;2023-06-14T04:31:13;17.50;99.90
11855;DHT22;5987;53.140;8.904;2023-06-14T04:34:18;17.70;99.90
11855;DHT22;5987;53.140;8.904;2023-06-14T04:37:23;17.60;99.90
11855;DHT22;5987;53.140;8.904;2023-06-14T04:40:30;17.80;99.90
11855;DHT22;5987;53.140;8.904;2023-06-14T04:43:35;18.10;99.90
11855;DHT22;5987;53.140;8.904;2023-06-14T04:46:40;18.40;99.90
11855;DHT22;5987;53.140;8.904;2023-06-14T04:49:48;18.60;99.90
11855;DHT22;5987;53.140;8.904;2023-06-14T04:52:53;18.80;99.90
11855;DHT22;5987;53.140;8.904;2023-06-14T04:55:57;18.80;99.90
11855;DHT22;5987;53.140;8.904;2023-06-14T04:59:04;19.00;99.90
11855;DHT22;5987;53.140;8.904;2023-06-14T05:02:08;19.00;99.90
11855;DHT22;5987;53.140;8.904;2023-06-14T05:05:12;19.20;99.90
11855;DHT22;5987;53.140;8.904;2023-06-14T05:08:18;19.40;99.90
11855;DHT22;5987;53.140;8.904;2023-06-14T05:11:22;19.70;99.90
11855;DHT22;5987;53.140;8.904;2023-06-14T05:14:27;19.90;99.90
11855;DHT22;5987;53.140;8.904;2023-06-14T05:17:31;20.00;99.90
11855;DHT22;5987;53.140;8.904;2023-06-14T05:20:35;20.10;99.90
11855;DHT22;5987;53.140;8.904;2023-06-14T05:23:40;20.30;99.90
11855;DHT22;5987;53.140;8.904;2023-06-14T05:26:44;20.40;99.90
11855;DHT22;5987;53.140;8.904;2023-06-14T05:29:49;20.60;99.90
11855;DHT22;5987;53.140;8.904;2023-06-14T05:32:53;20.60;99.90
11855;DHT22;5987;53.140;8.904;2023-06-14T05:35:57;20.60;99.90
11855;DHT22;5987;53.140;8.904;2023-06-14T05:39:01;20.60;99.90
11855;DHT22;5987;53.140;8.904;2023-06-14T05:42:07;20.30;99.90
11855;DHT22;5987;53.140;8.904;2023-06-14T05:45:13;20.30;99.90
11855;DHT22;5987;53.140;8.904;2023-06-14T05:48:18;20.30;99.90
11855;DHT22;5987;53.140;8.904;2023-06-14T05:51:23;20.40;99.90
11855;DHT22;5987;53.140;8.904;2023-06-14T05:54:28;20.30;99.90
11855;DHT22;5987;53.140;8.904;2023-06-14T05:57:32;20.70;99.90
11855;DHT22;5987;53.140;8.904;2023-06-14T06:00:37;20.70;99.90
11855;DHT22;5987;53.140;8.904;2023-06-14T06:03:41;20.60;99.90
11855;DHT22;5987;53.140;8.904;2023-06-14T06:06:48;20.70;99.90
11855;DHT22;5987;53.140;8.904;2023-06-14T06:09:52;20.80;99.90
11855;DHT22;5987;53.140;8.904;2023-06-14T06:12:56;20.60;99.90
11855;DHT22;5987;53.140;8.904;2023-06-14T06:16:01;21.00;99.90
11855;DHT22;5987;53.140;8.904;2023-06-14T06:19:05;21.30;99.10
11855;DHT22;5987;53.140;8.904;2023-06-14T06:22:08;21.60;97.20
11855;DHT22;5987;53.140;8.904;2023-06-14T06:25:12;21.70;96.60
11855;DHT22;5987;53.140;8.904;2023-06-14T06:28:17;21.80;96.00
11855;DHT22;5987;53.140;8.904;2023-06-14T06:31:22;21.80;95.10
11855;DHT22;5987;53.140;8.904;2023-06-14T06:34:26;21.50;95.80
11855;DHT22;5987;53.140;8.904;2023-06-14T06:37:30;21.90;95.50
11855;DHT22;5987;53.140;8.904;2023-06-14T06:40:33;21.80;94.90
11855;DHT22;5987;53.140;8.904;2023-06-14T06:43:37;22.10;94.10
11855;DHT22;5987;53.140;8.904;2023-06-14T06:46:43;22.20;93.80
11855;DHT22;5987;53.140;8.904;2023-06-14T06:49:48;22.10;94.20
11855;DHT22;5987;53.140;8.904;2023-06-14T06:52:52;22.40;92.20
11855;DHT22;5987;53.140;8.904;2023-06-14T06:55:56;22.60;91.60
11855;DHT22;5987;53.140;8.904;2023-06-14T06:59:00;22.90;91.20
11855;DHT22;5987;53.140;8.904;2023-06-14T07:02:06;22.80;90.50
11855;DHT22;5987;53.140;8.904;2023-06-14T07:05:10;22.90;90.10
11855;DHT22;5987;53.140;8.904;2023-06-14T07:08:15;23.10;89.40
11855;DHT22;5987;53.140;8.904;2023-06-14T07:11:18;23.10;86.90
11855;DHT22;5987;53.140;8.904;2023-06-14T07:14:22;23.20;85.40
11855;DHT22;5987;53.140;8.904;2023-06-14T07:17:27;22.90;86.50
11855;DHT22;5987;53.140;8.904;2023-06-14T07:20:31;23.10;86.30
11855;DHT22;5987;53.140;8.904;2023-06-14T07:23:35;23.10;83.70
11855;DHT22;5987;53.140;8.904;2023-06-14T07:26:39;23.10;84.70
11855;DHT22;5987;53.140;8.904;2023-06-14T07:29:43;23.50;83.40
11855;DHT22;5987;53.140;8.904;2023-06-14T07:32:48;23.80;81.00
11855;DHT22;5987;53.140;8.904;2023-06-14T07:35:52;24.10;79.90
11855;DHT22;5987;53.140;8.904;2023-06-14T07:38:56;24.10;79.20
11855;DHT22;5987;53.140;8.904;2023-06-14T07:42:01;24.10;76.70
11855;DHT22;5987;53.140;8.904;2023-06-14T07:45:07;23.90;76.70
11855;DHT22;5987;53.140;8.904;2023-06-14T07:48:12;23.90;75.90
11855;DHT22;5987;53.140;8.904;2023-06-14T07:51:16;24.10;75.20
11855;DHT22;5987;53.140;8.904;2023-06-14T07:54:20;24.00;76.40
11855;DHT22;5987;53.140;8.904;2023-06-14T07:57:26;24.20;74.50
11855;DHT22;5987;53.140;8.904;2023-06-14T08:00:30;24.20;73.20
11855;DHT22;5987;53.140;8.904;2023-06-14T08:03:36;24.00;74.70
11855;DHT22;5987;53.140;8.904;2023-06-14T08:06:41;23.80;73.90
11855;DHT22;5987;53.140;8.904;2023-06-14T08:09:46;23.80;75.00
11855;DHT22;5987;53.140;8.904;2023-06-14T08:12:50;24.00;73.90
11855;DHT22;5987;53.140;8.904;2023-06-14T08:15:53;24.00;73.50
11855;DHT22;5987;53.140;8.904;2023-06-14T08:19:00;24.10;73.20
11855;DHT22;5987;53.140;8.904;2023-06-14T08:22:05;23.90;72.90
11855;DHT22;5987;53.140;8.904;2023-06-14T08:25:10;24.00;72.40
11855;DHT22;5987;53.140;8.904;2023-06-14T08:28:16;24.20;73.30
11855;DHT22;5987;53.140;8.904;2023-06-14T08:31:20;24.60;72.60
11855;DHT22;5987;53.140;8.904;2023-06-14T08:34:25;25.20;71.40
11855;DHT22;5987;53.140;8.904;2023-06-14T08:37:29;25.40;70.10
11855;DHT22;5987;53.140;8.904;2023-06-14T08:40:37;25.50;70.30
11855;DHT22;5987;53.140;8.904;2023-06-14T08:43:41;25.60;68.80
11855;DHT22;5987;53.140;8.904;2023-06-14T08:46:45;25.60;68.30
11855;DHT22;5987;53.140;8.904;2023-06-14T08:49:53;25.60;68.30
11855;DHT22;5987;53.140;8.904;2023-06-14T08:53:02;25.70;67.10
11855;DHT22;5987;53.140;8.904;2023-06-14T08:56:07;25.60;66.90
11855;DHT22;5987;53.140;8.904;2023-06-14T08:59:15;25.30;68.50
11855;DHT22;5987;53.140;8.904;2023-06-14T09:02:20;25.20;67.70
11855;DHT22;5987;53.140;8.904;2023-06-14T09:05:26;25.00;68.00
11855;DHT22;5987;53.140;8.904;2023-06-14T09:08:30;25.00;68.70
11855;DHT22;5987;53.140;8.904;2023-06-14T09:11:35;24.80;69.30
11855;DHT22;5987;53.140;8.904;2023-06-14T09:14:39;24.80;69.10
11855;DHT22;5987;53.140;8.904;2023-06-14T09:17:44;25.10;70.10
11855;DHT22;5987;53.140;8.904;2023-06-14T09:20:50;25.20;67.60
11855;DHT22;5987;53.140;8.904;2023-06-14T09:23:54;25.10;68.90
11855;DHT22;5987;53.140;8.904;2023-06-14T09:26:58;25.20;69.00
11855;DHT22;5987;53.140;8.904;2023-06-14T09:30:03;25.30;69.20
11855;DHT22;5987;53.140;8.904;2023-06-14T09:33:07;25.30;68.30
11855;DHT22;5987;53.140;8.904;2023-06-14T09:36:15;25.30;68.60
11855;DHT22;5987;53.140;8.904;2023-06-14T09:39:20;25.40;67.90
11855;DHT22;5987;53.140;8.904;2023-06-14T09:42:24;25.50;67.30
11855;DHT22;5987;53.140;8.904;2023-06-14T09:45:33;25.60;66.50
11855;DHT22;5987;53.140;8.904;2023-06-14T09:48:37;25.70;65.60
11855;DHT22;5987;53.140;8.904;2023-06-14T09:51:50;25.60;66.50
11855;DHT22;5987;53.140;8.904;2023-06-14T09:54:56;25.90;66.90
11855;DHT22;5987;53.140;8.904;2023-06-14T09:58:05;26.20;65.00
11855;DHT22;5987;53.140;8.904;2023-06-14T10:01:10;25.60;67.20
11855;DHT22;5987;53.140;8.904;2023-06-14T10:04:18;25.40;65.80
11855;DHT22;5987;53.140;8.904;2023-06-14T10:07:27;25.10;66.30
11855;DHT22;5987;53.140;8.904;2023-06-14T10:10:35;25.00;66.70
11855;DHT22;5987;53.140;8.904;2023-06-14T10:13:42;25.10;66.60
11855;DHT22;5987;53.140;8.904;2023-06-14T10:16:52;24.90;67.50
11855;DHT22;5987;53.140;8.904;2023-06-14T10:20:16;25.10;66.80
11855;DHT22;5987;53.140;8.904;2023-06-14T10:23:30;25.10;67.00
11855;DHT22;5987;53.140;8.904;2023-06-14T10:26:50;25.10;68.70
11855;DHT22;5987;53.140;8.904;2023-06-14T10:30:07;25.50;65.40
11855;DHT22;5987;53.140;8.904;2023-06-14T10:33:15;25.50;64.80
11855;DHT22;5987;53.140;8.904;2023-06-14T10:36:27;25.20;65.70
11855;DHT22;5987;53.140;8.904;2023-06-14T10:39:38;25.00;66.50
11855;DHT22;5987;53.140;8.904;2023-06-14T10:42:51;25.00;66.90
11855;DHT22;5987;53.140;8.904;2023-06-14T10:46:17;24.70;66.80
11855;DHT22;5987;53.140;8.904;2023-06-14T10:49:37;24.80;66.60
11855;DHT22;5987;53.140;8.904;2023-06-14T10:52:45;24.80;66.60
11855;DHT22;5987;53.140;8.904;2023-06-14T10:55:51;24.80;65.80
11855;DHT22;5987;53.140;8.904;2023-06-14T10:58:56;24.60;67.90
11855;DHT22;5987;53.140;8.904;2023-06-14T11:02:27;24.70;66.60
11855;DHT22;5987;53.140;8.904;2023-06-14T11:05:54;24.80;67.80
11855;DHT22;5987;53.140;8.904;2023-06-14T11:09:24;25.20;65.30
11855;DHT22;5987;53.140;8.904;2023-06-14T11:12:52;25.10;65.20
11855;DHT22;5987;53.140;8.904;2023-06-14T11:15:58;25.00;64.70
11855;DHT22;5987;53.140;8.904;2023-06-14T11:19:02;24.60;66.60
11855;DHT22;5987;53.140;8.904;2023-06-14T11:22:08;24.90;65.20
11855;DHT22;5987;53.140;8.904;2023-06-14T11:25:12;25.10;66.90
11855;DHT22;5987;53.140;8.904;2023-06-14T11:28:18;25.50;64.10
11855;DHT22;5987;53.140;8.904;2023-06-14T11:31:23;25.70;64.30
11855;DHT22;5987;53.140;8.904;2023-06-14T11:34:28;25.70;62.40
11855;DHT22;5987;53.140;8.904;2023-06-14T11:37:32;25.90;63.60
11855;DHT22;5987;53.140;8.904;2023-06-14T11:40:38;26.20;62.40
11855;DHT22;5987;53.140;8.904;2023-06-14T11:43:43;26.00;61.40
11855;DHT22;5987;53.140;8.904;2023-06-14T11:46:47;25.60;63.00
11855;DHT22;5987;53.140;8.904;2023-06-14T11:49:52;25.60;64.40
11855;DHT22;5987;53.140;8.904;2023-06-14T11:52:57;25.50;64.20
11855;DHT22;5987;53.140;8.904;2023-06-14T11:56:09;25.20;63.50
11855;DHT22;5987;53.140;8.904;2023-06-14T11:59:15;25.10;65.20
11855;DHT22;5987;53.140;8.904;2023-06-14T12:02:19;25.50;65.00
11855;DHT22;5987;53.140;8.904;2023-06-14T12:05:26;26.00;63.90
11855;DHT22;5987;53.140;8.904;2023-06-14T12:08:35;26.30;63.50
11855;DHT22;5987;53.140;8.904;2023-06-14T12:11:42;26.50;61.80
11855;DHT22;5987;53.140;8.904;2023-06-14T12:14:49;26.90;61.90
11855;DHT22;5987;53.140;8.904;2023-06-14T12:17:54;26.80;61.80
11855;DHT22;5987;53.140;8.904;2023-06-14T12:20:59;26.70;61.60
11855;DHT22;5987;53.140;8.904;2023-06-14T12:24:05;26.60;59.90
11855;DHT22;5987;53.140;8.904;2023-06-14T12:27:09;26.20;60.50
11855;DHT22;5987;53.140;8.904;2023-06-14T12:30:19;25.80;61.70
11855;DHT22;5987;53.140;8.904;2023-06-14T12:33:23;25.30;63.00
11855;DHT22;5987;53.140;8.904;2023-06-14T12:36:27;25.30;63.60
11855;DHT22;5987;53.140;8.904;2023-06-14T12:39:30;25.50;63.20
11855;DHT22;5987;53.140;8.904;2023-06-14T12:42:34;26.00;63.50
11855;DHT22;5987;53.140;8.904;2023-06-14T12:45:40;26.40;60.70
11855;DHT22;5987;53.140;8.904;2023-06-14T12:48:43;26.60;61.00
11855;DHT22;5987;53.140;8.904;2023-06-14T12:51:47;26.90;60.80
11855;DHT22;5987;53.140;8.904;2023-06-14T12:54:51;27.00;60.00
11855;DHT22;5987;53.140;8.904;2023-06-14T12:57:55;27.00;61.30
11855;DHT22;5987;53.140;8.904;2023-06-14T13:01:00;27.00;60.20
11855;DHT22;5987;53.140;8.904;2023-06-14T13:04:04;26.90;60.50
11855;DHT22;5987;53.140;8.904;2023-06-14T13:07:07;27.10;61.30
11855;DHT22;5987;53.140;8.904;2023-06-14T13:10:12;27.10;59.90
11855;DHT22;5987;53.140;8.904;2023-06-14T13:13:16;26.70;59.40
11855;DHT22;5987;53.140;8.904;2023-06-14T13:16:22;26.40;60.70
11855;DHT22;5987;53.140;8.904;2023-06-14T13:19:26;26.20;61.50
11855;DHT22;5987;53.140;8.904;2023-06-14T13:22:30;25.90;61.10
11855;DHT22;5987;53.140;8.904;2023-06-14T13:25:34;25.70;62.20
11855;DHT22;5987;53.140;8.904;2023-06-14T13:28:38;25.80;62.30
11855;DHT22;5987;53.140;8.904;2023-06-14T13:31:43;26.20;62.00
11855;DHT22;5987;53.140;8.904;2023-06-14T13:34:47;26.60;61.60
11855;DHT22;5987;53.140;8.904;2023-06-14T13:37:51;26.90;60.30
11855;DHT22;5987;53.140;8.904;2023-06-14T13:40:55;26.60;59.90
11855;DHT22;5987;53.140;8.904;2023-06-14T13:43:59;26.30;60.50
11855;DHT22;5987;53.140;8.904;2023-06-14T13:47:07;25.90;62.20
11855;DHT22;5987;53.140;8.904;2023-06-14T13:50:11;25.80;63.00
11855;DHT22;5987;53.140;8.904;2023-06-14T13:53:15;25.70;63.00
11855;DHT22;5987;53.140;8.904;2023-06-14T13:56:19;25.40;63.20
11855;DHT22;5987;53.140;8.904;2023-06-14T13:59:24;25.30;63.10
11855;DHT22;5987;53.140;8.904;2023-06-14T14:02:29;25.10;63.50
11855;DHT22;5987;53.140;8.904;2023-06-14T14:05:33;25.40;63.20
11855;DHT22;5987;53.140;8.904;2023-06-14T14:08:37;26.00;62.10
11855;DHT22;5987;53.140;8.904;2023-06-14T14:11:41;26.60;59.80
11855;DHT22;5987;53.140;8.904;2023-06-14T14:14:45;26.90;59.40
11855;DHT22;5987;53.140;8.904;2023-06-14T14:17:50;27.20;59.10
11855;DHT22;5987;53.140;8.904;2023-06-14T14:20:56;27.10;58.90
11855;DHT22;5987;53.140;8.904;2023-06-14T14:24:00;26.70;59.80
11855;DHT22;5987;53.140;8.904;2023-06-14T14:27:04;26.40;60.10
11855;DHT22;5987;53.140;8.904;2023-06-14T14:30:10;26.10;61.20
11855;DHT22;5987;53.140;8.904;2023-06-14T14:33:18;25.80;61.70
11855;DHT22;5987;53.140;8.904;2023-06-14T14:36:22;25.60;61.40
11855;DHT22;5987;53.140;8.904;2023-06-14T14:39:25;25.50;62.00
11855;DHT22;5987;53.140;8.904;2023-06-14T14:42:29;25.50;62.20
11855;DHT22;5987;53.140;8.904;2023-06-14T14:45:33;25.50;62.60
11855;DHT22;5987;53.140;8.904;2023-06-14T14:48:38;25.50;63.10
11855;DHT22;5987;53.140;8.904;2023-06-14T14:51:42;25.70;62.70
11855;DHT22;5987;53.140;8.904;2023-06-14T14:54:46;25.80;63.20
11855;DHT22;5987;53.140;8.904;2023-06-14T14:57:50;26.40;61.70
11855;DHT22;5987;53.140;8.904;2023-06-14T15:00:53;26.40;59.90
11855;DHT22;5987;53.140;8.904;2023-06-14T15:03:59;26.40;60.30
11855;DHT22;5987;53.140;8.904;2023-06-14T15:07:03;26.50;59.80
11855;DHT22;5987;53.140;8.904;2023-06-14T15:10:08;26.40;59.70
11855;DHT22;5987;53.140;8.904;2023-06-14T15:13:13;26.20;60.40
11855;DHT22;5987;53.140;8.904;2023-06-14T15:16:17;26.20;60.10
11855;DHT22;5987;53.140;8.904;2023-06-14T15:19:23;26.20;60.20
11855;DHT22;5987;53.140;8.904;2023-06-14T15:22:26;26.10;60.90
11855;DHT22;5987;53.140;8.904;2023-06-14T15:25:30;26.20;60.80
11855;DHT22;5987;53.140;8.904;2023-06-14T15:28:35;26.10;60.00
11855;DHT22;5987;53.140;8.904;2023-06-14T15:31:38;26.00;59.70
11855;DHT22;5987;53.140;8.904;2023-06-14T15:34:43;26.10;59.90
11855;DHT22;5987;53.140;8.904;2023-06-14T15:37:47;26.30;59.90
11855;DHT22;5987;53.140;8.904;2023-06-14T15:40:51;26.40;59.50
11855;DHT22;5987;53.140;8.904;2023-06-14T15:43:55;26.10;59.30
11855;DHT22;5987;53.140;8.904;2023-06-14T15:46:59;25.70;59.90
11855;DHT22;5987;53.140;8.904;2023-06-14T15:50:05;25.60;60.50
11855;DHT22;5987;53.140;8.904;2023-06-14T15:53:10;25.70;60.90
11855;DHT22;5987;53.140;8.904;2023-06-14T15:56:14;25.60;60.70
11855;DHT22;5987;53.140;8.904;2023-06-14T15:59:18;25.40;60.50
11855;DHT22;5987;53.140;8.904;2023-06-14T16:02:22;25.30;60.80
11855;DHT22;5987;53.140;8.904;2023-06-14T16:05:27;25.40;59.20
11855;DHT22;5987;53.140;8.904;2023-06-14T16:08:31;25.60;59.20
11855;DHT22;5987;53.140;8.904;2023-06-14T16:11:41;25.80;58.80
11855;DHT22;5987;53.140;8.904;2023-06-14T16:14:45;26.00;58.10
11855;DHT22;5987;53.140;8.904;2023-06-14T16:17:49;26.20;58.00
11855;DHT22;5987;53.140;8.904;2023-06-14T16:20:54;26.30;57.70
11855;DHT22;5987;53.140;8.904;2023-06-14T16:23:59;26.20;57.60
11855;DHT22;5987;53.140;8.904;2023-06-14T16:27:03;26.40;58.20
11855;DHT22;5987;53.140;8.904;2023-06-14T16:30:09;26.50;58.90
11855;DHT22;5987;53.140;8.904;2023-06-14T16:33:13;26.50;58.00
11855;DHT22;5987;53.140;8.904;2023-06-14T16:36:18;26.40;58.40
11855;DHT22;5987;53.140;8.904;2023-06-14T16:39:22;26.40;58.20
11855;DHT22;5987;53.140;8.904;2023-06-14T16:42:26;26.40;58.10
11855;DHT22;5987;53.140;8.904;2023-06-14T16:45:30;26.30;58.10
11855;DHT22;5987;53.140;8.904;2023-06-14T16:48:33;26.40;58.10
11855;DHT22;5987;53.140;8.904;2023-06-14T16:51:39;26.40;58.50
11855;DHT22;5987;53.140;8.904;2023-06-14T16:54:42;26.40;58.70
11855;DHT22;5987;53.140;8.904;2023-06-14T16:57:46;26.50;58.80
11855;DHT22;5987;53.140;8.904;2023-06-14T17:00:50;26.60;59.40
11855;DHT22;5987;53.140;8.904;2023-06-14T17:03:54;26.70;58.00
11855;DHT22;5987;53.140;8.904;2023-06-14T17:06:59;26.60;58.40
11855;DHT22;5987;53.140;8.904;2023-06-14T17:10:05;26.70;58.70
11855;DHT22;5987;53.140;8.904;2023-06-14T17:13:10;26.50;59.10
11855;DHT22;5987;53.140;8.904;2023-06-14T17:16:13;26.30;59.30
11855;DHT22;5987;53.140;8.904;2023-06-14T17:19:24;26.00;60.20
11855;DHT22;5987;53.140;8.904;2023-06-14T17:22:30;25.80;61.40
11855;DHT22;5987;53.140;8.904;2023-06-14T17:25:33;25.60;62.00
11855;DHT22;5987;53.140;8.904;2023-06-14T17:28:37;25.50;62.20
11855;DHT22;5987;53.140;8.904;2023-06-14T17:31:41;25.40;62.50
11855;DHT22;5987;53.140;8.904;2023-06-14T17:34:45;25.40;63.00
11855;DHT22;5987;53.140;8.904;2023-06-14T17:37:50;25.30;63.10
11855;DHT22;5987;53.140;8.904;2023-06-14T17:40:54;25.30;63.80
11855;DHT22;5987;53.140;8.904;2023-06-14T17:43:58;25.20;63.80
11855;DHT22;5987;53.140;8.904;2023-06-14T17:47:02;25.10;64.10
11855;DHT22;5987;53.140;8.904;2023-06-14T17:50:07;25.00;64.10
11855;DHT22;5987;53.140;8.904;2023-06-14T17:53:13;25.00;64.40
11855;DHT22;5987;53.140;8.904;2023-06-14T17:56:17;24.90;65.20
11855;DHT22;5987;53.140;8.904;2023-06-14T17:59:23;24.80;65.50
11855;DHT22;5987;53.140;8.904;2023-06-14T18:02:30;24.90;65.80
11855;DHT22;5987;53.140;8.904;2023-06-14T18:05:34;24.90;66.10
11855;DHT22;5987;53.140;8.904;2023-06-14T18:08:40;24.90;66.10
11855;DHT22;5987;53.140;8.904;2023-06-14T18:11:45;24.90;66.70
11855;DHT22;5987;53.140;8.904;2023-06-14T18:14:49;24.80;67.10
11855;DHT22;5987;53.140;8.904;2023-06-14T18:17:53;24.70;67.20
11855;DHT22;5987;53.140;8.904;2023-06-14T18:20:57;24.60;67.50
11855;DHT22;5987;53.140;8.904;2023-06-14T18:24:04;24.60;68.10
11855;DHT22;5987;53.140;8.904;2023-06-14T18:27:08;24.40;68.60
11855;DHT22;5987;53.140;8.904;2023-06-14T18:30:13;24.40;68.80
11855;DHT22;5987;53.140;8.904;2023-06-14T18:33:17;24.30;68.20
11855;DHT22;5987;53.140;8.904;2023-06-14T18:36:22;24.20;68.30
11855;DHT22;5987;53.140;8.904;2023-06-14T18:39:28;24.10;68.50
11855;DHT22;5987;53.140;8.904;2023-06-14T18:42:32;24.00;68.30
11855;DHT22;5987;53.140;8.904;2023-06-14T18:45:35;23.90;68.80
11855;DHT22;5987;53.140;8.904;2023-06-14T18:48:39;23.90;69.10
11855;DHT22;5987;53.140;8.904;2023-06-14T18:51:45;23.70;69.20
11855;DHT22;5987;53.140;8.904;2023-06-14T18:54:52;23.60;69.30
11855;DHT22;5987;53.140;8.904;2023-06-14T18:57:55;23.60;69.40
11855;DHT22;5987;53.140;8.904;2023-06-14T19:00:59;23.50;69.80
11855;DHT22;5987;53.140;8.904;2023-06-14T19:04:03;23.40;70.10
11855;DHT22;5987;53.140;8.904;2023-06-14T19:07:08;23.30;70.20
11855;DHT22;5987;53.140;8.904;2023-06-14T19:10:13;23.30;70.60
11855;DHT22;5987;53.140;8.904;2023-06-14T19:13:17;23.20;70.70
11855;DHT22;5987;53.140;8.904;2023-06-14T19:16:22;23.10;71.00
11855;DHT22;5987;53.140;8.904;2023-06-14T19:19:26;23.00;71.60
11855;DHT22;5987;53.140;8.904;2023-06-14T19:22:31;22.90;72.00
11855;DHT22;5987;53.140;8.904;2023-06-14T19:25:36;22.90;72.00
11855;DHT22;5987;53.140;8.904;2023-06-14T19:28:39;22.80;72.30
11855;DHT22;5987;53.140;8.904;2023-06-14T19:31:43;22.70;72.70
11855;DHT22;5987;53.140;8.904;2023-06-14T19:34:47;22.60;72.70
11855;DHT22;5987;53.140;8.904;2023-06-14T19:37:50;22.50;72.70
11855;DHT22;5987;53.140;8.904;2023-06-14T19:40:55;22.40;73.20
11855;DHT22;5987;53.140;8.904;2023-06-14T19:43:59;22.30;73.50
11855;DHT22;5987;53.140;8.904;2023-06-14T19:47:03;22.20;74.00
11855;DHT22;5987;53.140;8.904;2023-06-14T19:50:08;22.10;74.40